PWSweather.com
Personal Weather Stations
Station Observations

MakarauRodneyNZ

Lat: -36.52421, Lon: 174.47572

Elevation: 606

Station Type: Davis VP2

http://kaiparaweather.dynu.net/index.php

High Low Average
Temperature 71.6°F22.0°C 65.8°F18.8°C 70.1°F21.2°C
Dew Point 70.7°F21.5°C 64.3°F17.9°C 69.1°F20.6°C
Winds 10.4 mph 16.7 kmh Calm Calm 4.0 mph SE6.4 kmh SE
Wind Gusts 16.1 mph25.9 kmh -- 7.0 mph11.3 kmh
Humidity 98% 94% 97%
Pressure 29.52 in999.7 mb 29.43 in996.6 mb -
Precipitation 0.99 in25.1 mm - -
Hour Temp Dew Point Humidity Winds Wind Gusts Pressure Precip Precip Rate Daily Precip Total
12:00 AM 70.2°F21.2°C 65.8°F18.8°C 86% 1.2 mph NNE1.9 kmh NNE 2.3 mph3.7 kmh 29.70 in1005.8 mb - 0.00 in0.0 mm 0.00 in0.0 mm
12:10 AM 70.2°F21.2°C 65.8°F18.8°C 86% 2.3 mph NNE3.7 kmh NNE 10.4 mph16.7 kmh 29.70 in1005.8 mb - 0.00 in0.0 mm 0.00 in0.0 mm
12:20 AM 70.3°F21.3°C 65.9°F18.8°C 86% 6.9 mph NNE11.1 kmh NNE 11.5 mph18.5 kmh 29.69 in1005.4 mb - 0.00 in0.0 mm 0.00 in0.0 mm
12:30 AM 70.3°F21.3°C 65.9°F18.8°C 86% 1.2 mph NNE1.9 kmh NNE 2.3 mph3.7 kmh 29.69 in1005.4 mb - 0.00 in0.0 mm 0.00 in0.0 mm
12:40 AM 70.3°F21.3°C 66.2°F19.0°C 87% 1.2 mph NNE1.9 kmh NNE 3.5 mph5.6 kmh 29.69 in1005.4 mb - 0.00 in0.0 mm 0.00 in0.0 mm
12:50 AM 70.3°F21.3°C 66.3°F19.1°C 87% 2.3 mph NNE3.7 kmh NNE 6.9 mph11.1 kmh 29.68 in1005.1 mb - 0.00 in0.0 mm 0.00 in0.0 mm
01:00 AM 70.4°F21.3°C 66.3°F19.1°C 87% 5.8 mph NNE9.3 kmh NNE 8.1 mph13.0 kmh 29.68 in1005.1 mb - 0.00 in0.0 mm 0.00 in0.0 mm
01:10 AM 70.4°F21.3°C 66.3°F19.1°C 87% 6.9 mph NNE11.1 kmh NNE 12.7 mph20.4 kmh 29.67 in1004.7 mb - 0.00 in0.0 mm 0.00 in0.0 mm
01:20 AM 70.5°F21.4°C 66.4°F19.1°C 87% 5.8 mph NNE9.3 kmh NNE 10.4 mph16.7 kmh 29.66 in1004.4 mb - 0.00 in0.0 mm 0.00 in0.0 mm
01:30 AM 70.5°F21.4°C 66.4°F19.1°C 87% 4.6 mph NNE7.4 kmh NNE 4.6 mph7.4 kmh 29.66 in1004.4 mb - 0.00 in0.0 mm 0.00 in0.0 mm
01:40 AM 70.5°F21.4°C 66.4°F19.1°C 87% 1.2 mph NNE1.9 kmh NNE 3.5 mph5.6 kmh 29.66 in1004.4 mb - 0.00 in0.0 mm 0.00 in0.0 mm
01:50 AM 70.5°F21.4°C 66.8°F19.3°C 88% 1.2 mph NNE1.9 kmh NNE 3.5 mph5.6 kmh 29.65 in1004.1 mb - 0.00 in0.0 mm 0.00 in0.0 mm
02:00 AM 70.5°F21.4°C 66.8°F19.3°C 88% 2.3 mph NNE3.7 kmh NNE 4.6 mph7.4 kmh 29.64 in1003.7 mb - 0.00 in0.0 mm 0.00 in0.0 mm
02:10 AM 70.5°F21.4°C 66.4°F19.1°C 87% 2.3 mph NNE3.7 kmh NNE 3.5 mph5.6 kmh 29.63 in1003.4 mb - 0.00 in0.0 mm 0.00 in0.0 mm
02:20 AM 70.6°F21.4°C 66.5°F19.2°C 87% 2.3 mph NNE3.7 kmh NNE 4.6 mph7.4 kmh 29.63 in1003.4 mb - 0.00 in0.0 mm 0.00 in0.0 mm
02:30 AM 70.7°F21.5°C 66.6°F19.2°C 87% 4.6 mph NNE7.4 kmh NNE 6.9 mph11.1 kmh 29.62 in1003.0 mb - 0.00 in0.0 mm 0.00 in0.0 mm
02:40 AM 70.8°F21.6°C 66.7°F19.3°C 87% 2.3 mph NNE3.7 kmh NNE 6.9 mph11.1 kmh 29.62 in1003.0 mb - 0.00 in0.0 mm 0.00 in0.0 mm
02:50 AM 70.8°F21.6°C 66.7°F19.3°C 87% 5.8 mph N9.3 kmh N 18.4 mph29.6 kmh 29.61 in1002.7 mb - 0.00 in0.0 mm 0.00 in0.0 mm
03:00 AM 70.8°F21.6°C 66.7°F19.3°C 87% 8.1 mph NNE13.0 kmh NNE 11.5 mph18.5 kmh 29.60 in1002.4 mb - 0.00 in0.0 mm 0.00 in0.0 mm
03:10 AM 70.8°F21.6°C 66.7°F19.3°C 87% 10.4 mph NNE16.7 kmh NNE 15.0 mph24.1 kmh 29.59 in1002.0 mb - 0.00 in0.0 mm 0.00 in0.0 mm
03:20 AM 70.6°F21.4°C 66.6°F19.2°C 87% 11.5 mph NNE18.5 kmh NNE 13.8 mph22.2 kmh 29.58 in1001.7 mb - 0.00 in0.0 mm 0.00 in0.0 mm
03:30 AM 70.5°F21.4°C 66.8°F19.3°C 88% 10.4 mph NNE16.7 kmh NNE 12.7 mph20.4 kmh 29.58 in1001.7 mb - 0.00 in0.0 mm 0.00 in0.0 mm
03:40 AM 70.6°F21.4°C 66.9°F19.4°C 88% 10.4 mph NNE16.7 kmh NNE 12.7 mph20.4 kmh 29.58 in1001.7 mb - 0.00 in0.0 mm 0.00 in0.0 mm
03:50 AM 70.8°F21.6°C 67.1°F19.5°C 88% 6.9 mph NNE11.1 kmh NNE 13.8 mph22.2 kmh 29.59 in1002.0 mb - 0.00 in0.0 mm 0.00 in0.0 mm
04:00 AM 70.9°F21.6°C 67.2°F19.6°C 88% 6.9 mph NNE11.1 kmh NNE 10.4 mph16.7 kmh 29.59 in1002.0 mb - 0.00 in0.0 mm 0.00 in0.0 mm
04:10 AM 70.9°F21.6°C 67.1°F19.5°C 88% 5.8 mph NNE9.3 kmh NNE 9.2 mph14.8 kmh 29.59 in1002.0 mb - 0.00 in0.0 mm 0.00 in0.0 mm
04:20 AM 70.8°F21.6°C 67.1°F19.5°C 88% 6.9 mph NNE11.1 kmh NNE 9.2 mph14.8 kmh 29.58 in1001.7 mb - 0.00 in0.0 mm 0.00 in0.0 mm
04:30 AM 70.8°F21.6°C 67.0°F19.4°C 88% 9.2 mph NNE14.8 kmh NNE 11.5 mph18.5 kmh 29.58 in1001.7 mb - 0.00 in0.0 mm 0.00 in0.0 mm
04:40 AM 70.8°F21.6°C 67.0°F19.4°C 88% 2.3 mph NNE3.7 kmh NNE 10.4 mph16.7 kmh 29.58 in1001.7 mb - 0.00 in0.0 mm 0.00 in0.0 mm
04:50 AM 70.7°F21.5°C 67.3°F19.6°C 89% 1.2 mph NNE1.9 kmh NNE 2.3 mph3.7 kmh 29.58 in1001.7 mb - 0.00 in0.0 mm 0.00 in0.0 mm
05:00 AM 70.4°F21.3°C 67.4°F19.7°C 90% 2.3 mph NNE3.7 kmh NNE 3.5 mph5.6 kmh 29.58 in1001.7 mb - 0.00 in0.0 mm 0.00 in0.0 mm
05:10 AM 70.0°F21.1°C 67.3°F19.6°C 91% 2.3 mph NNE3.7 kmh NNE 11.5 mph18.5 kmh 29.57 in1001.4 mb - 0.00 in0.0 mm 0.00 in0.0 mm
05:20 AM 69.8°F21.0°C 67.1°F19.5°C 91% 10.4 mph NNE16.7 kmh NNE 15.0 mph24.1 kmh 29.57 in1001.4 mb - 0.00 in0.0 mm 0.00 in0.0 mm
05:30 AM 69.9°F21.1°C 67.2°F19.6°C 91% 9.2 mph NNE14.8 kmh NNE 13.8 mph22.2 kmh 29.56 in1001.0 mb - 0.00 in0.0 mm 0.00 in0.0 mm
05:40 AM 70.2°F21.2°C 67.1°F19.5°C 90% 10.4 mph NNE16.7 kmh NNE 12.7 mph20.4 kmh 29.55 in1000.7 mb - 0.00 in0.0 mm 0.00 in0.0 mm
05:50 AM 70.3°F21.3°C 67.2°F19.6°C 90% 9.2 mph NNE14.8 kmh NNE 11.5 mph18.5 kmh 29.55 in1000.7 mb - 0.00 in0.0 mm 0.00 in0.0 mm
06:00 AM 70.4°F21.3°C 67.0°F19.4°C 89% 8.1 mph NNE13.0 kmh NNE 10.4 mph16.7 kmh 29.56 in1001.0 mb - 0.00 in0.0 mm 0.00 in0.0 mm
06:10 AM 70.6°F21.4°C 67.2°F19.6°C 89% 3.5 mph NE5.6 kmh NE 4.6 mph7.4 kmh 29.56 in1001.0 mb - 0.00 in0.0 mm 0.00 in0.0 mm
06:20 AM 70.9°F21.6°C 67.5°F19.7°C 89% 6.9 mph NNE11.1 kmh NNE 11.5 mph18.5 kmh 29.56 in1001.0 mb - 0.00 in0.0 mm 0.00 in0.0 mm
06:30 AM 71.1°F21.7°C 67.4°F19.7°C 88% 9.2 mph NNE14.8 kmh NNE 13.8 mph22.2 kmh 29.55 in1000.7 mb - 0.00 in0.0 mm 0.00 in0.0 mm
06:40 AM 71.3°F21.8°C 67.6°F19.8°C 88% 6.9 mph NNE11.1 kmh NNE 9.2 mph14.8 kmh 29.55 in1000.7 mb - 0.00 in0.0 mm 0.00 in0.0 mm
06:50 AM 71.4°F21.9°C 67.6°F19.8°C 88% 8.1 mph NNE13.0 kmh NNE 13.8 mph22.2 kmh 29.55 in1000.7 mb - 0.00 in0.0 mm 0.00 in0.0 mm
07:00 AM 71.6°F22.0°C 67.8°F19.9°C 88% 5.8 mph NNE9.3 kmh NNE 10.4 mph16.7 kmh 29.55 in1000.7 mb - 0.00 in0.0 mm 0.00 in0.0 mm
07:10 AM 71.7°F22.1°C 68.0°F20.0°C 88% 6.9 mph NNE11.1 kmh NNE 10.4 mph16.7 kmh 29.55 in1000.7 mb - 0.00 in0.0 mm 0.00 in0.0 mm
07:20 AM 71.8°F22.1°C 67.8°F19.9°C 87% 5.8 mph NNE9.3 kmh NNE 12.7 mph20.4 kmh 29.56 in1001.0 mb - 0.00 in0.0 mm 0.00 in0.0 mm
07:30 AM 72.0°F22.2°C 67.9°F19.9°C 87% 1.2 mph NNE1.9 kmh NNE 3.5 mph5.6 kmh 29.56 in1001.0 mb - 0.00 in0.0 mm 0.00 in0.0 mm
07:40 AM 71.9°F22.2°C 67.8°F19.9°C 87% 9.2 mph NNE14.8 kmh NNE 12.7 mph20.4 kmh 29.55 in1000.7 mb - 0.00 in0.0 mm 0.00 in0.0 mm
07:50 AM 72.1°F22.3°C 68.0°F20.0°C 87% 6.9 mph NNE11.1 kmh NNE 11.5 mph18.5 kmh 29.55 in1000.7 mb - 0.00 in0.0 mm 0.00 in0.0 mm
08:00 AM 72.3°F22.4°C 68.2°F20.1°C 87% 4.6 mph NNE7.4 kmh NNE 3.5 mph5.6 kmh 29.56 in1001.0 mb - 0.00 in0.0 mm 0.00 in0.0 mm
08:10 AM 72.3°F22.4°C 68.2°F20.1°C 87% 10.4 mph NNE16.7 kmh NNE 13.8 mph22.2 kmh 29.55 in1000.7 mb - 0.00 in0.0 mm 0.00 in0.0 mm
08:20 AM 72.2°F22.3°C 67.8°F19.9°C 86% 9.2 mph NNE14.8 kmh NNE 13.8 mph22.2 kmh 29.55 in1000.7 mb - 0.00 in0.0 mm 0.00 in0.0 mm
08:30 AM 72.4°F22.4°C 68.3°F20.2°C 87% 3.5 mph NNE5.6 kmh NNE 10.4 mph16.7 kmh 29.56 in1001.0 mb - 0.00 in0.0 mm 0.00 in0.0 mm
08:40 AM 72.9°F22.7°C 68.5°F20.3°C 86% 6.9 mph NNE11.1 kmh NNE 11.5 mph18.5 kmh 29.56 in1001.0 mb - 0.00 in0.0 mm 0.00 in0.0 mm
08:50 AM 73.2°F22.9°C 68.8°F20.4°C 86% 4.6 mph NNE7.4 kmh NNE 11.5 mph18.5 kmh 29.56 in1001.0 mb - 0.00 in0.0 mm 0.00 in0.0 mm
09:00 AM 73.4°F23.0°C 69.0°F20.6°C 86% 2.3 mph NNE3.7 kmh NNE 3.5 mph5.6 kmh 29.55 in1000.7 mb - 0.00 in0.0 mm 0.00 in0.0 mm
09:10 AM 73.0°F22.8°C 68.9°F20.5°C 87% 2.3 mph NNE3.7 kmh NNE 6.9 mph11.1 kmh 29.55 in1000.7 mb - 0.00 in0.0 mm 0.00 in0.0 mm
09:20 AM 72.4°F22.4°C 69.0°F20.6°C 89% 3.5 mph NNE5.6 kmh NNE 10.4 mph16.7 kmh 29.55 in1000.7 mb - 0.00 in0.0 mm 0.00 in0.0 mm
09:30 AM 72.3°F22.4°C 69.5°F20.8°C 91% 3.5 mph NNE5.6 kmh NNE 3.5 mph5.6 kmh 29.54 in1000.3 mb - 0.00 in0.0 mm 0.00 in0.0 mm
09:40 AM 72.5°F22.5°C 69.7°F20.9°C 91% 3.5 mph NNE5.6 kmh NNE 8.1 mph13.0 kmh 29.54 in1000.3 mb - 0.00 in0.0 mm 0.00 in0.0 mm
09:50 AM 72.7°F22.6°C 70.0°F21.1°C 91% 3.5 mph NNE5.6 kmh NNE 11.5 mph18.5 kmh 29.53 in1000.0 mb - 0.00 in0.0 mm 0.00 in0.0 mm
10:00 AM 73.0°F22.8°C 69.9°F21.1°C 90% 5.8 mph NNE9.3 kmh NNE 9.2 mph14.8 kmh 29.54 in1000.3 mb - 0.00 in0.0 mm 0.00 in0.0 mm
10:10 AM 73.2°F22.9°C 69.8°F21.0°C 89% 1.2 mph NNE1.9 kmh NNE 3.5 mph5.6 kmh 29.54 in1000.3 mb - 0.00 in0.0 mm 0.00 in0.0 mm
10:20 AM 73.1°F22.8°C 69.7°F20.9°C 89% 4.6 mph NNE7.4 kmh NNE 11.5 mph18.5 kmh 29.53 in1000.0 mb - 0.00 in0.0 mm 0.00 in0.0 mm
10:30 AM 73.1°F22.8°C 69.3°F20.7°C 88% 9.2 mph NNE14.8 kmh NNE 11.5 mph18.5 kmh 29.52 in999.7 mb - 0.00 in0.0 mm 0.00 in0.0 mm
10:40 AM 73.1°F22.8°C 70.0°F21.1°C 90% 8.1 mph NNE13.0 kmh NNE 11.5 mph18.5 kmh 29.52 in999.7 mb - 0.00 in0.0 mm 0.00 in0.0 mm
10:50 AM 73.5°F23.1°C 70.4°F21.3°C 90% 3.5 mph NNE5.6 kmh NNE 3.5 mph5.6 kmh 29.53 in1000.0 mb - 0.00 in0.0 mm 0.00 in0.0 mm
11:00 AM 73.6°F23.1°C 70.2°F21.2°C 89% 2.3 mph NNE3.7 kmh NNE 3.5 mph5.6 kmh 29.54 in1000.3 mb - 0.00 in0.0 mm 0.00 in0.0 mm
11:10 AM 73.0°F22.8°C 69.9°F21.1°C 90% 4.6 mph NNE7.4 kmh NNE 3.5 mph5.6 kmh 29.53 in1000.0 mb - 0.00 in0.0 mm 0.00 in0.0 mm
11:20 AM 72.4°F22.4°C 69.6°F20.9°C 91% 1.2 mph NNE1.9 kmh NNE 3.5 mph5.6 kmh 29.54 in1000.3 mb - 0.01 in0.3 mm 0.01 in0.3 mm
11:30 AM 72.0°F22.2°C 69.9°F21.1°C 93% 2.3 mph NNE3.7 kmh NNE 4.6 mph7.4 kmh 29.54 in1000.3 mb - 0.02 in0.5 mm 0.03 in0.8 mm
11:40 AM 71.6°F22.0°C 69.5°F20.8°C 93% 2.3 mph NNE3.7 kmh NNE 5.8 mph9.3 kmh 29.54 in1000.3 mb - 0.04 in1.0 mm 0.07 in1.8 mm
11:50 AM 71.4°F21.9°C 69.6°F20.9°C 94% 4.6 mph NNE7.4 kmh NNE 8.1 mph13.0 kmh 29.54 in1000.3 mb - 0.05 in1.3 mm 0.11 in2.8 mm
12:00 PM 70.9°F21.6°C 69.1°F20.6°C 94% 6.9 mph NNE11.1 kmh NNE 8.1 mph13.0 kmh 29.52 in999.7 mb - 0.06 in1.5 mm 0.16 in4.1 mm
12:10 PM 70.7°F21.5°C 69.2°F20.7°C 95% 8.1 mph NNE13.0 kmh NNE 9.2 mph14.8 kmh 29.52 in999.7 mb - 0.04 in1.0 mm 0.19 in4.8 mm
12:20 PM 70.5°F21.4°C 69.0°F20.6°C 95% 3.5 mph NNE5.6 kmh NNE 13.8 mph22.2 kmh 29.51 in999.3 mb - 0.02 in0.5 mm 0.20 in5.1 mm
12:30 PM 70.5°F21.4°C 69.0°F20.6°C 95% 9.2 mph NNE14.8 kmh NNE 13.8 mph22.2 kmh 29.50 in999.0 mb - 0.02 in0.5 mm 0.22 in5.6 mm
12:40 PM 70.7°F21.5°C 69.5°F20.8°C 96% 9.2 mph NNE14.8 kmh NNE 11.5 mph18.5 kmh 29.50 in999.0 mb - 0.02 in0.5 mm 0.24 in6.1 mm
12:50 PM 71.2°F21.8°C 70.0°F21.1°C 96% 9.2 mph NNE14.8 kmh NNE 12.7 mph20.4 kmh 29.50 in999.0 mb - 0.00 in0.0 mm 0.24 in6.1 mm
01:00 PM 71.4°F21.9°C 70.2°F21.2°C 96% 9.2 mph NNE14.8 kmh NNE 11.5 mph18.5 kmh 29.50 in999.0 mb - 0.01 in0.3 mm 0.24 in6.1 mm
01:10 PM 70.9°F21.6°C 69.7°F20.9°C 96% 9.2 mph NNE14.8 kmh NNE 12.7 mph20.4 kmh 29.50 in999.0 mb - 0.04 in1.0 mm 0.28 in7.1 mm
01:20 PM 70.7°F21.5°C 69.5°F20.8°C 96% 1.2 mph NNE1.9 kmh NNE 3.5 mph5.6 kmh 29.51 in999.3 mb - 0.09 in2.3 mm 0.36 in9.1 mm
01:30 PM 70.5°F21.4°C 69.3°F20.7°C 96% 1.2 mph NNE1.9 kmh NNE 3.5 mph5.6 kmh 29.50 in999.0 mb - 0.10 in2.5 mm 0.45 in11.4 mm
01:40 PM 70.4°F21.3°C 69.5°F20.8°C 97% 2.3 mph NNE3.7 kmh NNE 5.8 mph9.3 kmh 29.49 in998.6 mb - 0.03 in0.8 mm 0.47 in11.9 mm
01:50 PM 70.4°F21.3°C 69.5°F20.8°C 97% 3.5 mph NNE5.6 kmh NNE 5.8 mph9.3 kmh 29.48 in998.3 mb - 0.02 in0.5 mm 0.49 in12.4 mm
02:00 PM 70.7°F21.5°C 69.8°F21.0°C 97% 1.2 mph NNE1.9 kmh NNE 3.5 mph5.6 kmh 29.48 in998.3 mb - 0.02 in0.5 mm 0.50 in12.7 mm
02:10 PM 70.9°F21.6°C 70.1°F21.2°C 97% 2.3 mph NNE3.7 kmh NNE 4.6 mph7.4 kmh 29.47 in998.0 mb - 0.00 in0.0 mm 0.50 in12.7 mm
02:20 PM 71.1°F21.7°C 70.2°F21.2°C 97% 2.3 mph NNE3.7 kmh NNE 3.5 mph5.6 kmh 29.46 in997.6 mb - 0.01 in0.3 mm 0.51 in13.0 mm
02:30 PM 71.4°F21.9°C 70.5°F21.4°C 97% 3.5 mph NNE5.6 kmh NNE 6.9 mph11.1 kmh 29.46 in997.6 mb - 0.00 in0.0 mm 0.51 in13.0 mm
02:40 PM 71.6°F22.0°C 70.7°F21.5°C 97% 4.6 mph NNE7.4 kmh NNE 8.1 mph13.0 kmh 29.45 in997.3 mb - 0.00 in0.0 mm 0.51 in13.0 mm
02:50 PM 71.3°F21.8°C 70.4°F21.3°C 97% 4.6 mph NNE7.4 kmh NNE 10.4 mph16.7 kmh 29.45 in997.3 mb - 0.01 in0.3 mm 0.52 in13.2 mm
03:00 PM 71.5°F21.9°C 70.6°F21.4°C 97% 4.6 mph NNE7.4 kmh NNE 5.8 mph9.3 kmh 29.46 in997.6 mb - 0.00 in0.0 mm 0.52 in13.2 mm
03:10 PM 71.5°F21.9°C 70.6°F21.4°C 97% 4.6 mph NNE7.4 kmh NNE 9.2 mph14.8 kmh 29.46 in997.6 mb - 0.00 in0.0 mm 0.52 in13.2 mm
03:20 PM 71.5°F21.9°C 70.6°F21.4°C 97% 2.3 mph NNE3.7 kmh NNE 6.9 mph11.1 kmh 29.46 in997.6 mb - 0.00 in0.0 mm 0.52 in13.2 mm
03:30 PM 71.4°F21.9°C 70.5°F21.4°C 97% 6.9 mph NNE11.1 kmh NNE 9.2 mph14.8 kmh 29.45 in997.3 mb - 0.00 in0.0 mm 0.52 in13.2 mm
03:40 PM 71.4°F21.9°C 70.5°F21.4°C 97% 3.5 mph NNE5.6 kmh NNE 6.9 mph11.1 kmh 29.45 in997.3 mb - 0.00 in0.0 mm 0.52 in13.2 mm
03:50 PM 71.4°F21.9°C 70.5°F21.4°C 97% 4.6 mph NNE7.4 kmh NNE 6.9 mph11.1 kmh 29.45 in997.3 mb - 0.00 in0.0 mm 0.52 in13.2 mm
04:00 PM 71.6°F22.0°C 70.7°F21.5°C 97% 3.5 mph NNE5.6 kmh NNE 5.8 mph9.3 kmh 29.44 in997.0 mb - 0.00 in0.0 mm 0.52 in13.2 mm
04:10 PM 71.6°F22.0°C 70.7°F21.5°C 97% 3.5 mph NNE5.6 kmh NNE 4.6 mph7.4 kmh 29.45 in997.3 mb - 0.00 in0.0 mm 0.52 in13.2 mm
04:20 PM 71.5°F21.9°C 70.6°F21.4°C 97% 2.3 mph NNE3.7 kmh NNE 3.5 mph5.6 kmh 29.45 in997.3 mb - 0.01 in0.3 mm 0.53 in13.5 mm
04:30 PM 71.4°F21.9°C 70.5°F21.4°C 97% 1.2 mph NNE1.9 kmh NNE 3.5 mph5.6 kmh 29.44 in997.0 mb - 0.00 in0.0 mm 0.53 in13.5 mm
04:40 PM 71.3°F21.8°C 70.4°F21.3°C 97% 3.5 mph NNE5.6 kmh NNE 6.9 mph11.1 kmh 29.44 in997.0 mb - 0.01 in0.3 mm 0.54 in13.7 mm
04:50 PM 71.6°F22.0°C 70.7°F21.5°C 97% 3.5 mph NNE5.6 kmh NNE 3.5 mph5.6 kmh 29.45 in997.3 mb - 0.00 in0.0 mm 0.54 in13.7 mm
05:00 PM 71.6°F22.0°C 70.7°F21.5°C 97% Calm Calm 3.5 mph5.6 kmh 29.44 in997.0 mb - 0.00 in0.0 mm 0.54 in13.7 mm
05:10 PM 71.4°F21.9°C 70.5°F21.4°C 97% 2.3 mph NNE3.7 kmh NNE 3.5 mph5.6 kmh 29.43 in996.6 mb - 0.01 in0.3 mm 0.54 in13.7 mm
05:20 PM 71.4°F21.9°C 70.5°F21.4°C 97% 3.5 mph NNE5.6 kmh NNE 3.5 mph5.6 kmh 29.44 in997.0 mb - 0.01 in0.3 mm 0.55 in14.0 mm
05:30 PM 71.4°F21.9°C 70.5°F21.4°C 97% 3.5 mph NNE5.6 kmh NNE 4.6 mph7.4 kmh 29.43 in996.6 mb - 0.01 in0.3 mm 0.56 in14.2 mm
05:40 PM 71.3°F21.8°C 70.4°F21.3°C 97% 1.2 mph NNE1.9 kmh NNE 3.5 mph5.6 kmh 29.43 in996.6 mb - 0.01 in0.3 mm 0.57 in14.5 mm
05:50 PM 71.2°F21.8°C 70.3°F21.3°C 97% Calm Calm 3.5 mph5.6 kmh 29.43 in996.6 mb - 0.00 in0.0 mm 0.57 in14.5 mm
06:00 PM 71.3°F21.8°C 70.4°F21.3°C 97% Calm Calm 2.3 mph3.7 kmh 29.43 in996.6 mb - 0.00 in0.0 mm 0.57 in14.5 mm
06:10 PM 71.3°F21.8°C 70.4°F21.3°C 97% 1.2 mph NE1.9 kmh NE 3.5 mph5.6 kmh 29.43 in996.6 mb - 0.00 in0.0 mm 0.57 in14.5 mm
06:20 PM 71.3°F21.8°C 70.4°F21.3°C 97% 1.2 mph NNE1.9 kmh NNE 3.5 mph5.6 kmh 29.43 in996.6 mb - 0.02 in0.5 mm 0.59 in15.0 mm
06:30 PM 71.1°F21.7°C 70.3°F21.3°C 97% 1.2 mph NW1.9 kmh NW 6.9 mph11.1 kmh 29.43 in996.6 mb - 0.11 in2.8 mm 0.69 in17.5 mm
06:40 PM 70.7°F21.5°C 69.9°F21.1°C 97% 2.3 mph WNW3.7 kmh WNW 9.2 mph14.8 kmh 29.43 in996.6 mb - 0.20 in5.1 mm 0.85 in21.6 mm
06:50 PM 70.7°F21.5°C 69.8°F21.0°C 97% 2.3 mph W3.7 kmh W 4.6 mph7.4 kmh 29.44 in997.0 mb - 0.08 in2.0 mm 0.91 in23.1 mm
07:00 PM 70.7°F21.5°C 69.8°F21.0°C 97% 2.3 mph WSW3.7 kmh WSW 4.6 mph7.4 kmh 29.43 in996.6 mb - 0.06 in1.5 mm 0.96 in24.4 mm
07:10 PM 70.6°F21.4°C 69.7°F20.9°C 97% 4.6 mph W7.4 kmh W 8.1 mph13.0 kmh 29.44 in997.0 mb - 0.04 in1.0 mm 0.99 in25.1 mm
07:20 PM 70.6°F21.4°C 70.0°F21.1°C 98% 5.8 mph WNW9.3 kmh WNW 10.4 mph16.7 kmh 29.44 in997.0 mb - 0.00 in0.0 mm 0.99 in25.1 mm
07:30 PM 70.6°F21.4°C 70.0°F21.1°C 98% 4.6 mph WSW7.4 kmh WSW 9.2 mph14.8 kmh 29.44 in997.0 mb - 0.00 in0.0 mm 0.99 in25.1 mm
07:40 PM 70.5°F21.4°C 69.9°F21.1°C 98% 3.5 mph W5.6 kmh W 3.5 mph5.6 kmh 29.44 in997.0 mb - 0.00 in0.0 mm 0.99 in25.1 mm
07:50 PM 70.3°F21.3°C 69.7°F20.9°C 98% 1.2 mph WSW1.9 kmh WSW 4.6 mph7.4 kmh 29.44 in997.0 mb - 0.00 in0.0 mm 0.99 in25.1 mm
08:00 PM 70.3°F21.3°C 69.4°F20.8°C 97% 1.2 mph W1.9 kmh W 4.6 mph7.4 kmh 29.45 in997.3 mb - 0.00 in0.0 mm 0.99 in25.1 mm
08:10 PM 70.2°F21.2°C 69.3°F20.7°C 97% 4.6 mph SW7.4 kmh SW 8.1 mph13.0 kmh 29.45 in997.3 mb - 0.00 in0.0 mm 0.99 in25.1 mm
08:20 PM 70.1°F21.2°C 69.5°F20.8°C 98% 3.5 mph WSW5.6 kmh WSW 9.2 mph14.8 kmh 29.45 in997.3 mb - 0.00 in0.0 mm 0.99 in25.1 mm
08:30 PM 69.7°F20.9°C 68.8°F20.4°C 97% 4.6 mph WSW7.4 kmh WSW 8.1 mph13.0 kmh 29.46 in997.6 mb - 0.00 in0.0 mm 0.99 in25.1 mm
08:40 PM 68.9°F20.5°C 68.0°F20.0°C 97% 5.8 mph WSW9.3 kmh WSW 8.1 mph13.0 kmh 29.46 in997.6 mb - 0.00 in0.0 mm 0.99 in25.1 mm
08:50 PM 68.7°F20.4°C 67.8°F19.9°C 97% Calm Calm 3.5 mph5.6 kmh 29.45 in997.3 mb - 0.00 in0.0 mm 0.99 in25.1 mm
09:00 PM 68.7°F20.4°C 67.8°F19.9°C 97% 1.2 mph WSW1.9 kmh WSW 4.6 mph7.4 kmh 29.46 in997.6 mb - 0.00 in0.0 mm 0.99 in25.1 mm
09:10 PM 68.9°F20.5°C 68.0°F20.0°C 97% Calm Calm -- 29.46 in997.6 mb - 0.00 in0.0 mm 0.99 in25.1 mm
09:20 PM 69.3°F20.7°C 68.7°F20.4°C 98% 4.6 mph WSW7.4 kmh WSW 8.1 mph13.0 kmh 29.46 in997.6 mb - 0.00 in0.0 mm 0.99 in25.1 mm
09:30 PM 69.0°F20.6°C 68.1°F20.1°C 97% 5.8 mph WSW9.3 kmh WSW 9.2 mph14.8 kmh 29.47 in998.0 mb - 0.00 in0.0 mm 0.99 in25.1 mm
09:40 PM 68.4°F20.2°C 67.5°F19.7°C 97% 4.6 mph WSW7.4 kmh WSW 8.1 mph13.0 kmh 29.47 in998.0 mb - 0.00 in0.0 mm 0.99 in25.1 mm
09:50 PM 68.0°F20.0°C 67.1°F19.5°C 97% 5.8 mph WSW9.3 kmh WSW 8.1 mph13.0 kmh 29.47 in998.0 mb - 0.00 in0.0 mm 0.99 in25.1 mm
10:00 PM 68.0°F20.0°C 67.1°F19.5°C 97% 5.8 mph W9.3 kmh W 10.4 mph16.7 kmh 29.47 in998.0 mb - 0.00 in0.0 mm 0.99 in25.1 mm
10:10 PM 68.2°F20.1°C 67.3°F19.6°C 97% 2.3 mph WSW3.7 kmh WSW 4.6 mph7.4 kmh 29.47 in998.0 mb - 0.00 in0.0 mm 0.99 in25.1 mm
10:20 PM 68.2°F20.1°C 67.3°F19.6°C 97% 1.2 mph WSW1.9 kmh WSW 3.5 mph5.6 kmh 29.47 in998.0 mb - 0.00 in0.0 mm 0.99 in25.1 mm
10:30 PM 68.2°F20.1°C 67.3°F19.6°C 97% 2.3 mph W3.7 kmh W 8.1 mph13.0 kmh 29.47 in998.0 mb - 0.00 in0.0 mm 0.99 in25.1 mm
10:40 PM 68.0°F20.0°C 66.8°F19.3°C 96% Calm Calm 1.2 mph1.9 kmh 29.47 in998.0 mb - 0.00 in0.0 mm 0.99 in25.1 mm
10:50 PM 68.0°F20.0°C 66.8°F19.3°C 96% 3.5 mph WSW5.6 kmh WSW 4.6 mph7.4 kmh 29.47 in998.0 mb - 0.00 in0.0 mm 0.99 in25.1 mm
11:00 PM 67.9°F19.9°C 66.7°F19.3°C 96% 10.4 mph WSW16.7 kmh WSW 16.1 mph25.9 kmh 29.48 in998.3 mb - 0.00 in0.0 mm 1.18 in30.0 mm
11:10 PM 66.8°F19.3°C 65.4°F18.6°C 95% 2.3 mph WSW3.7 kmh WSW 8.1 mph13.0 kmh 29.48 in998.3 mb - 0.01 in0.3 mm 0.01 in0.3 mm
11:20 PM 66.3°F19.1°C 64.8°F18.2°C 95% 10.4 mph WSW16.7 kmh WSW 12.7 mph20.4 kmh 29.48 in998.3 mb - 0.00 in0.0 mm 0.01 in0.3 mm
11:30 PM 66.0°F18.9°C 64.5°F18.1°C 95% 3.5 mph WSW5.6 kmh WSW 6.9 mph11.1 kmh 29.48 in998.3 mb - 0.00 in0.0 mm 0.01 in0.3 mm
11:40 PM 65.8°F18.8°C 64.3°F17.9°C 95% 4.6 mph WSW7.4 kmh WSW 10.4 mph16.7 kmh 29.48 in998.3 mb - 0.00 in0.0 mm 0.01 in0.3 mm
11:50 PM 65.9°F18.8°C 64.5°F18.1°C 95% 2.3 mph WSW3.7 kmh WSW 5.8 mph9.3 kmh 29.48 in998.3 mb - 0.00 in0.0 mm 0.01 in0.3 mm